Search for airport 
image banner adimage banner adimage banner ad
image banner ad

KPMD - Palmdale Usaf Plant 42

Located in Palmdale, United States

ICAO - PMD, IATA - PMD

Data provided by Airmate  

General information

Coordinates: N34°37'46" W118°5'4"
Elevation is 2543 feet MSL.
Magnetic variation is 12° East
View others Airports in California

Operational data

Special qualification required
Current time UTC:
Current local time:
Weather
METAR: KPMD 210853Z AUTO 23008KT 10SM CLR 26/02 A2992 RMK AO2 SLP093 T02610022 58004
TAF: KPMD 210535Z 2106/2206 22008KT P6SM SKC FM211600 25012KT P6SM SKC FM211800 24020G26KT P6SM SKC FM212100 24026G36KT P6SM SKC FM220200 24015G22KT P6SM SKC FM220400 23010KT P6SM SKC
View NOTAMs / SUP AIP / TFR affecting this airport [VIEW]
Communications frequencies: [VIEW]

Runways:

RWY identifierQFULength (ft)Width (ft)SurfaceLDA (ft)
0452°12001150CONC
22232°12001150CONC
0786°12002200CONC
25266°12002200CONC

Airport contact information

Address: Palmdale United States

Satellite view of KPMD